Omerville, Canada
Current Conditions -  °F | °C
As of 7:00 PM on Sunday 21 Dec 2014 (Local Time) from CYSC Reporting Station
Overcast Overcast  
Wind Chill: 18°   Ceiling: 2300
Heat Index: 18°   Visibility: 8mi
Dew Point: 16°   Wind: 2mph
Humidity: 93%   Direction: NA
Pressure: 30.35"   Gusts: NA
Location:  45.28°N, 72.12°W
Report Text: CYSC 220000Z AUTO VRB02KT 8SM SCT013 OVC023 M08/M09 A3035 RMK SLP296
Loading
Personal Weather Stations






























Interactive Weather Map New forecast layout! Learn more

10-Day Weather Forecast

Advertisements
Track Severe Weather on mobile